VTUQVTUO

Guest
Details From VTUQ - Nakhon Ratchasima
To VTUO - Burirum
Flight Number -
Tags generated
Created
Modified
Stats Distance 58 nm / 108 km
Max Altitude 100 ft / 30 m
Waypoints 3
Social Downloads 1
Likes 0
Share VATSIM

Download

Looking for another format? Having issues loading an existing format? Contact us
Advertisement - Login to hide

Notes

Basic altitude profile: - Ascent Rate: 2500ft/min - Ascent Speed: 250kts - Cruise Altitude: 35000ft - Cruise Speed: 420kts - Descent Rate: 1500ft/min - Descent Speed: 250kts Options: - Use NATs: yes - Use PACOTS: yes - Use low airways: yes - Use high airways: yes

Route

VTUQ BRM VTUO

ID Type Via Altitude Latitude Longitude Leg Dist Tot Dist Heading (true) Name
O VTUQ APT - 0 ft / 0 m 14.94950˚ 102.31274˚ - 0 nm - Nakhon Ratchasima
BRM VOR - 100 ft / 30 m 15.23956˚ 103.25878˚ 57 nm 57 nm 72° / 73° BURI RAM VOR-DME
O VTUO APT - 0 ft / 0 m 15.22954˚ 103.25323˚ 0 nm 58 nm 208° / 208° Burirum

Altitude Profile

Advertisement - Login to hide

VTUQ

Details ICAO VTUQ (NAK)
Name Nakhon Ratchasima
Region Thailand
Timezone Asia/Bangkok (UTC+7.0)
Stats Elevation 765 ft / 233 m (AMSL)
Location 14.949496° 102.312737°
Runways 1
Magnetic Variation 0.681° W

METAR

VTUQ 161900Z AUTO 05011KT ////NDV ////// 20/14 Q1018 A3007

Decode

TAF

TAF VTUQ 161700Z 1618/1718 06015KT 8000 FEW030 BECMG 1701/1703 9999 FEW025

Decode

Departure Runways

ID Width Length Bearing (true) Bearing (mag) Surface Threshold Offset Overrun Length
06 148 ft / 45 m 6,896 ft / 2,102 m 61.18° 61.86° Asphalt 0 ft / 0 m 197 ft / 60 m
24 148 ft / 45 m 6,896 ft / 2,102 m 241.19° 241.87° Asphalt 0 ft / 0 m 197 ft / 60 m

VTUO

Details ICAO VTUO (BFV)
Name Burirum
Region Thailand
Timezone Asia/Bangkok (UTC+7.0)
Stats Elevation 590 ft / 180 m (AMSL)
Location 15.229537° 103.253231°
Runways 1
Magnetic Variation 0.739° W

METAR

Not found

TAF

TAF VTUO 161700Z 1618/1718 05015KT 8000 NSC BECMG 1701/1703 9999 FEW025

Decode

Destination Runways

ID Width Length Bearing (true) Bearing (mag) Surface Threshold Offset Overrun Length
04 148 ft / 45 m 6,930 ft / 2,112 m 34.94° 35.68° Asphalt 0 ft / 0 m 1,726 ft / 526 m
22 148 ft / 45 m 6,930 ft / 2,112 m 214.94° 215.68° Asphalt 0 ft / 0 m 1,704 ft / 519 m

Approach Navaids

Runway Type Ident Frequency Range Bearing (true) Bearing (mag) Slope Elevation
04 Localiser IBRM 109.30 MHz 18 nm / 33 km 34.93° 35.67° - 543 ft / 166 m (AMSL)
04 Glidescope IBRM 109.30 MHz 10 nm / 19 km 34.94° 35.68° 3.00° 590 ft / 180 m (AMSL)
04 DME IBRM 109.30 MHz 18 nm / 33 km - - - 543 ft / 166 m (AMSL)

Popular Alternatives